Meteorología y climatología de Navarra
Datos de la estación - Meteo Navarra

Estación de Doneztebe-Santesteban GN

Altitud 125 m.


Datos desde el 15/02/2020 hasta el 16/02/2020 en horario solar
Los datos son PROVISIONALES

Anterior Página 1 de 1 Siguiente Descargar: Formato para Excel 2000 o superior   Formato csv   Formato para OpenOffice Calc
Fecha Temperatura Humedad relativa Radiación global Insolación Precipitación Vel. viento 10 m Vel. viento 10 m Dir. viento 10 m
ºC % W/m² s l/m² m/s km/h º
15/02/2020 0:00 4.5 98 0.0 0 0.0 0.2 0.9 284
15/02/2020 0:10 4.6 98 0.0 0 0.0 0.0 0.0 0
15/02/2020 0:20 4.4 98 0.0 0 0.0 0.3 0.9 206
15/02/2020 0:30 4.3 98 0.0 0 0.0 0.4 1.3 266
15/02/2020 0:40 4.0 98 0.0 0 0.0 0.2 0.7 57
15/02/2020 0:50 4.2 98 0.0 0 0.0 0.0 0.0 0
15/02/2020 1:00 4.0 98 0.0 0 0.0 0.1 0.4 118
15/02/2020 1:10 3.9 98 0.0 0 0.0 0.1 0.2 297
15/02/2020 1:20 3.9 98 0.0 0 0.0 0.0 0.0 0
15/02/2020 1:30 3.7 98 0.0 0 0.0 0.0 0.0 0
15/02/2020 1:40 3.6 98 0.0 0 0.0 0.0 0.0 0
15/02/2020 1:50 3.7 98 0.0 0 0.0 0.1 0.5 274
15/02/2020 2:00 3.6 98 0.0 0 0.0 0.3 1.2 118
15/02/2020 2:10 3.3 98 0.0 0 0.0 0.2 0.9 119
15/02/2020 2:20 3.3 98 0.0 0 0.0 0.0 0.0 0
15/02/2020 2:30 3.4 98 0.0 0 0.0 0.0 0.0 0
15/02/2020 2:40 3.4 98 0.0 0 0.0 0.3 1.2 142
15/02/2020 2:50 3.3 99 0.0 0 0.0 0.1 0.3 182
15/02/2020 3:00 3.4 99 0.0 0 0.0 0.1 0.5 2
15/02/2020 3:10 3.4 99 0.0 0 0.0 0.4 1.4 137
15/02/2020 3:20 3.3 99 0.0 0 0.0 0.2 0.7 128
15/02/2020 3:30 3.3 99 0.0 0 0.0 0.4 1.4 154
15/02/2020 3:40 3.6 99 0.0 0 0.0 0.3 1.0 334
15/02/2020 3:50 3.5 99 0.0 0 0.0 0.6 2.1 350
15/02/2020 4:00 3.5 99 0.0 0 0.0 0.1 0.5 224
15/02/2020 4:10 3.7 99 0.0 0 0.0 0.3 1.2 271
15/02/2020 4:20 3.5 99 0.0 0 0.0 0.6 2.1 155
15/02/2020 4:30 3.4 99 0.0 0 0.0 0.7 2.3 259
15/02/2020 4:40 3.3 99 0.0 0 0.0 0.2 0.7 258
15/02/2020 4:50 3.3 99 0.0 0 0.0 0.4 1.5 209
15/02/2020 5:00 3.0 99 0.0 0 0.0 0.7 2.5 103
15/02/2020 5:10 3.0 99 0.0 0 0.0 0.5 1.7 214
15/02/2020 5:20 3.2 99 0.0 0 0.0 1.0 3.5 179
15/02/2020 5:30 3.4 99 0.0 0 0.0 1.7 6.3 138
15/02/2020 5:40 3.6 99 0.0 0 0.0 1.2 4.5 140
15/02/2020 5:50 3.6 99 0.0 0 0.0 1.4 4.9 136
15/02/2020 6:00 3.5 98 0.0 0 0.0 1.0 3.6 134
15/02/2020 6:10 3.4 98 0.0 0 0.0 1.2 4.2 141
15/02/2020 6:20 3.8 98 0.0 0 0.0 2.6 9.5 145
15/02/2020 6:30 4.0 97 0.0 0 0.0 2.5 9.1 137
15/02/2020 6:40 3.9 96 0.0 0 0.0 2.1 7.6 138
15/02/2020 6:50 3.8 96 0.0 0 0.0 2.3 8.2 129
15/02/2020 7:00 3.8 96 0.0 0 0.0 2.8 10.2 122
15/02/2020 7:10 3.7 96 0.0 0 0.0 2.4 8.5 128
15/02/2020 7:20 3.7 96 0.0 0 0.0 2.3 8.1 116
15/02/2020 7:30 3.5 96 13.7 0 0.0 2.0 7.1 126
15/02/2020 7:40 3.6 96 22.3 0 0.0 1.7 6.2 123
15/02/2020 7:50 3.6 96 27.6 0 0.0 1.7 6.3 119
15/02/2020 8:00 3.8 96 46.5 102 0.0 2.1 7.6 135
15/02/2020 8:10 4.1 96 137.5 600 0.0 1.9 6.8 136
15/02/2020 8:20 4.5 95 166.0 600 0.0 1.6 5.9 134
15/02/2020 8:30 5.0 94 181.7 600 0.0 2.1 7.4 131
15/02/2020 8:40 5.6 93 197.2 600 0.0 0.9 3.3 142
15/02/2020 8:50 6.0 91 226.1 600 0.0 2.1 7.4 136
15/02/2020 9:00 6.6 90 266.0 600 0.0 2.0 7.3 137
15/02/2020 9:10 7.7 88 303.1 600 0.0 1.6 5.7 126
15/02/2020 9:20 9.7 81 329.5 600 0.0 1.1 3.8 198
15/02/2020 9:30 12.3 72 354.1 600 0.0 2.5 8.8 275
15/02/2020 9:40 14.7 58 382.0 600 0.0 2.6 9.2 273
15/02/2020 9:50 15.0 57 404.3 600 0.0 3.3 11.8 282
15/02/2020 10:00 15.3 56 427.7 600 0.0 3.5 12.5 281
15/02/2020 10:10 15.8 55 448.7 600 0.0 3.4 12.2 283
15/02/2020 10:20 15.9 55 467.7 600 0.0 3.5 12.6 286
15/02/2020 10:30 16.0 53 485.8 600 0.0 3.4 12.3 282
15/02/2020 10:40 16.1 52 504.4 600 0.0 3.2 11.4 275
15/02/2020 10:50 16.4 53 517.9 600 0.0 2.6 9.2 260
15/02/2020 11:00 16.5 53 530.1 600 0.0 2.8 10.0 281
15/02/2020 11:10 16.6 53 542.3 600 0.0 2.5 9.1 270
15/02/2020 11:20 17.0 52 553.7 600 0.0 3.2 11.3 277
15/02/2020 11:30 17.2 52 564.0 600 0.0 3.3 11.8 275
15/02/2020 11:40 17.2 52 571.7 600 0.0 3.4 12.1 283
15/02/2020 11:50 17.3 51 577.4 600 0.0 3.2 11.4 267
15/02/2020 12:00 17.5 52 582.7 600 0.0 2.7 9.6 289
15/02/2020 12:10 17.8 51 584.4 600 0.0 2.2 7.8 286
15/02/2020 12:20 18.1 50 587.0 600 0.0 3.4 12.2 262
15/02/2020 12:30 18.2 49 603.4 600 0.0 2.9 10.5 255
15/02/2020 12:40 18.5 49 567.3 600 0.0 3.8 13.6 282
15/02/2020 12:50 18.5 49 524.8 600 0.0 3.2 11.5 264
15/02/2020 13:00 18.8 49 542.2 600 0.0 3.5 12.7 279
15/02/2020 13:10 18.6 49 445.4 600 0.0 3.5 12.4 244
15/02/2020 13:20 18.3 50 371.6 468 0.0 3.2 11.3 257
15/02/2020 13:30 18.6 49 498.2 600 0.0 2.7 9.5 260
15/02/2020 13:40 18.9 48 477.1 600 0.0 1.4 5.0 242
15/02/2020 13:50 19.1 48 375.1 600 0.0 1.8 6.5 285
15/02/2020 14:00 18.6 51 346.9 600 0.0 3.0 10.8 300
15/02/2020 14:10 18.6 51 291.1 600 0.0 2.2 8.0 300
15/02/2020 14:20 18.4 51 278.7 600 0.0 3.0 10.7 303
15/02/2020 14:30 18.2 52 273.6 558 0.0 3.3 11.8 303
15/02/2020 14:40 18.1 52 226.4 8 0.0 3.0 10.9 294
15/02/2020 14:50 18.0 53 217.2 0 0.0 3.6 13.0 301
15/02/2020 15:00 17.9 53 192.8 0 0.0 3.0 10.9 290
15/02/2020 15:10 18.1 52 173.9 0 0.0 1.7 5.9 294
15/02/2020 15:20 17.8 53 156.8 0 0.0 4.0 14.5 303
15/02/2020 15:30 17.7 54 141.7 0 0.0 3.8 13.5 301
15/02/2020 15:40 17.6 54 110.9 0 0.0 3.6 12.9 309
15/02/2020 15:50 17.5 54 92.4 0 0.0 2.6 9.3 292
15/02/2020 16:00 17.2 55 85.8 0 0.0 2.9 10.3 299
15/02/2020 16:10 17.4 54 78.3 0 0.0 2.6 9.2 304
15/02/2020 16:20 17.3 55 73.0 0 0.0 2.8 10.1 301
15/02/2020 16:30 17.2 55 72.7 0 0.0 3.0 10.7 291
15/02/2020 16:40 17.3 54 62.5 0 0.0 2.8 10.0 286
15/02/2020 16:50 17.2 55 50.4 0 0.0 3.2 11.4 294
15/02/2020 17:00 17.1 56 44.5 0 0.0 2.7 9.5 294
15/02/2020 17:10 17.0 56 36.2 28 0.0 2.6 9.3 294
15/02/2020 17:20 16.7 56 28.1 188 0.0 2.6 9.5 290
15/02/2020 17:30 16.9 56 12.3 0 0.0 3.3 12.0 292
15/02/2020 17:40 16.3 58 0.0 0 0.0 1.9 6.9 294
15/02/2020 17:50 16.3 57 0.0 0 0.0 3.2 11.3 297
15/02/2020 18:00 16.5 57 0.0 0 0.0 3.3 11.9 301
15/02/2020 18:10 16.6 55 0.0 0 0.0 3.5 12.7 294
15/02/2020 18:20 16.7 56 0.0 0 0.0 3.7 13.2 292
15/02/2020 18:30 16.7 56 0.0 0 0.0 3.2 11.3 287
15/02/2020 18:40 16.7 55 0.0 0 0.0 2.5 9.1 287
15/02/2020 18:50 16.6 56 0.0 0 0.0 2.2 7.7 286
15/02/2020 19:00 16.2 57 0.0 0 0.0 2.8 10.1 298
15/02/2020 19:10 16.3 57 0.0 0 0.0 2.9 10.4 300
15/02/2020 19:20 16.2 57 0.0 0 0.0 1.8 6.6 303
15/02/2020 19:30 16.1 58 0.0 0 0.0 2.6 9.5 316
15/02/2020 19:40 16.2 57 0.0 0 0.0 3.6 13.1 299
15/02/2020 19:50 16.1 58 0.0 0 0.0 3.1 11.2 309
15/02/2020 20:00 16.2 58 0.0 0 0.0 3.5 12.6 299
15/02/2020 20:10 16.1 59 0.0 0 0.0 3.3 11.9 295
15/02/2020 20:20 16.2 58 0.0 0 0.0 3.5 12.7 297
15/02/2020 20:30 16.1 59 0.0 0 0.0 3.5 12.6 292
15/02/2020 20:40 16.2 59 0.0 0 0.0 3.3 11.7 300
15/02/2020 20:50 16.0 59 0.0 0 0.0 3.1 11.1 290
15/02/2020 21:00 16.1 59 0.0 0 0.0 3.2 11.6 302
15/02/2020 21:10 16.1 59 0.0 0 0.0 3.7 13.2 307
15/02/2020 21:20 16.0 59 0.0 0 0.0 3.6 12.9 306
15/02/2020 21:30 15.9 60 0.0 0 0.0 3.7 13.1 303
15/02/2020 21:40 16.0 59 0.0 0 0.0 3.9 13.9 303
15/02/2020 21:50 15.9 60 0.0 0 0.0 2.5 9.1 297
15/02/2020 22:00 16.0 59 0.0 0 0.0 3.9 14.1 302
15/02/2020 22:10 16.0 59 0.0 0 0.0 2.2 7.7 301
15/02/2020 22:20 15.7 59 0.0 0 0.0 2.1 7.4 299
15/02/2020 22:30 15.6 60 0.0 0 0.0 2.9 10.4 296
15/02/2020 22:40 15.7 59 0.0 0 0.0 3.8 13.6 300
15/02/2020 22:50 15.7 59 0.0 0 0.0 4.0 14.3 305
15/02/2020 23:00 15.8 58 0.0 0 0.0 3.4 12.3 290
15/02/2020 23:10 15.8 58 0.0 0 0.0 4.8 17.3 309
15/02/2020 23:20 15.8 58 0.0 0 0.0 5.3 19.1 303
15/02/2020 23:30 15.9 58 0.0 0 0.0 4.5 16.3 304
15/02/2020 23:40 15.7 58 0.0 0 0.0 3.4 12.1 303
15/02/2020 23:50 15.7 57 0.0 0 0.0 4.9 17.7 301
Anterior Página 1 de 1 Siguiente

NOTA: Tipo de datos según el color:
   - Valores diarios o 10 minutos correctos
   - Valores diarios calculados a partir de un número de datos 10 minutos menor que 144 y mayor que 120, o de un número de datos semihorarios menor que 48 y mayor que 40 (caso de las estaciones de INTIA y del Ministerio)
   - Valores diez minutos estimados


Contacto        Enlaces        Aviso legal